Time;durP1;ratioP1;P1;durP2;ratioP2;P2;SDS_P1;SDS_P2;PMS_P1;PMS_P2;Temp;Humidity;BMP_temperature;BMP_pressure;BME280_temperature;BME280_humidity;BME280_pressure;Samples;Min_cycle;Max_cycle;Signal;HPM_P1;HPM_P2
2022/04/26 03:36:42;;;;;;;1999.90;999.90;;;8.30;1.00;;;;;;4953461;28;20507;-72
2022/04/26 03:39:08;;;;;;;1999.90;999.90;;;6.40;1.00;;;;;;4953640;29;20043;-71
2022/04/26 03:41:34;;;;;;;1999.90;999.90;;;6.80;1.00;;;;;;4953899;29;20496;-71
2022/04/26 03:44:00;;;;;;;1999.90;999.90;;;8.70;1.00;;;;;;4953729;29;20061;-71
2022/04/26 03:46:26;;;;;;;1999.90;999.90;;;8.10;1.00;;;;;;4936368;29;20058;-72
2022/04/26 03:48:52;;;;;;;1999.90;999.90;;;6.80;1.00;;;;;;4964526;28;20443;-72
2022/04/26 03:51:18;;;;;;;1999.90;999.90;;;8.70;1.00;;;;;;4972437;28;20133;-72
2022/04/26 03:53:47;;;;;;;1999.90;999.90;;;7.60;1.00;;;;;;4972710;28;20058;-72
2022/04/26 03:56:13;;;;;;;1999.90;999.90;;;6.70;1.00;;;;;;4972445;28;20050;-72
2022/04/26 03:58:38;;;;;;;1946.78;999.90;;;8.20;1.00;;;;;;4972240;28;20049;-72
2022/04/26 04:01:04;;;;;;;1999.90;999.90;;;6.70;1.00;;;;;;4972936;28;20054;-72
2022/04/26 04:03:30;;;;;;;1999.90;999.90;;;6.70;1.00;;;;;;4971574;28;20492;-72
2022/04/26 04:05:56;;;;;;;1999.90;999.90;;;6.70;1.00;;;;;;4972786;28;20142;-71
2022/04/26 04:08:22;;;;;;;1999.90;999.90;;;6.90;1.00;;;;;;4970934;28;20146;-72
2022/04/26 04:10:47;;;;;;;1999.90;999.90;;;6.60;1.00;;;;;;4972401;28;20065;-72
2022/04/26 04:13:13;;;;;;;1929.90;999.90;;;8.00;1.00;;;;;;4970249;28;20488;-72
2022/04/26 04:15:39;;;;;;;1974.57;999.90;;;6.60;1.00;;;;;;4972408;28;20042;-72
2022/04/26 04:19:17;;;;;;;1999.90;999.90;;;7.30;1.00;;;;;;4971109;28;20446;-72
2022/04/26 04:20:54;;;;;;;1999.90;999.90;;;8.50;1.00;;;;;;4972264;28;20059;-72
2022/04/26 04:23:21;;;;;;;1887.28;999.90;;;6.50;1.00;;;;;;4958464;28;20167;-72
2022/04/26 04:25:46;;;;;;;1857.10;999.90;;;6.50;1.00;;;;;;4953139;29;20078;-72
2022/04/26 04:28:12;;;;;;;1812.45;999.90;;;7.20;1.00;;;;;;4952837;29;20043;-72
2022/04/26 04:30:38;;;;;;;1766.07;999.90;;;6.60;1.00;;;;;;4953336;29;20055;-72
2022/04/26 04:33:03;;;;;;;1895.00;999.90;;;7.50;1.00;;;;;;4964026;28;20450;-72
2022/04/26 04:35:29;;;;;;;1317.45;999.90;;;7.60;3.80;;;;;;4971158;28;20062;-71
2022/04/26 04:37:55;;;;;;;1654.97;999.90;;;7.50;5.00;;;;;;4972089;28;20133;-72
2022/04/26 04:40:20;;;;;;;1615.13;999.90;;;6.80;1.00;;;;;;4971898;28;20081;-72
2022/04/26 04:42:46;;;;;;;1706.07;999.90;;;7.00;1.00;;;;;;4972412;28;20047;-72
2022/04/26 04:45:12;;;;;;;1580.28;999.90;;;7.90;1.00;;;;;;4972010;28;20069;-72
2022/04/26 04:47:37;;;;;;;1713.00;999.90;;;7.10;1.00;;;;;;4971944;28;20063;-72
2022/04/26 04:50:03;;;;;;;1706.13;999.90;;;9.00;1.00;;;;;;4974370;28;20134;-72
2022/04/26 04:52:29;;;;;;;1660.65;999.90;;;7.10;1.00;;;;;;4975749;28;20051;-71
2022/04/26 04:54:55;;;;;;;1693.03;999.90;;;7.10;1.00;;;;;;4975785;28;20504;-72
2022/04/26 04:57:20;;;;;;;1856.40;999.90;;;7.10;1.00;;;;;;4975467;28;20082;-72
2022/04/26 04:59:46;;;;;;;1690.32;999.90;;;7.00;1.00;;;;;;4958385;28;20101;-72
2022/04/26 05:02:12;;;;;;;1777.75;999.90;;;;;;;;;;4975254;28;20058;-72
2022/04/26 05:04:39;;;;;;;1764.25;999.90;;;6.90;1.00;;;;;;4957738;28;20099;-71
2022/04/26 05:07:07;;;;;;;1940.13;999.90;;;;;;;;;;4975847;28;20134;-72
2022/04/26 05:09:33;;;;;;;1616.22;999.90;;;7.00;1.00;;;;;;4957672;28;20051;-71
2022/04/26 05:11:59;;;;;;;1698.15;999.90;;;7.00;1.00;;;;;;4973896;28;20046;-71
2022/04/26 05:14:24;;;;;;;1775.68;999.90;;;7.80;1.00;;;;;;4955439;29;20511;-71
2022/04/26 05:16:50;;;;;;;1712.60;999.90;;;7.10;1.00;;;;;;4943544;28;20034;-72
2022/04/26 05:19:16;;;;;;;1796.22;999.90;;;7.10;1.00;;;;;;4973873;28;20081;-72
2022/04/26 05:21:42;;;;;;;1711.05;999.90;;;7.90;1.00;;;;;;4975440;28;20078;-71
2022/04/26 05:26:52;;;;;;;1752.47;999.90;;;7.40;1.00;;;;;;4975386;28;20065;-71
2022/04/26 05:29:17;;;;;;;1746.25;999.90;;;7.40;1.00;;;;;;4942073;28;20059;-72
2022/04/26 05:31:43;;;;;;;1858.22;999.90;;;7.50;1.00;;;;;;4965106;28;20065;-71
2022/04/26 05:34:09;;;;;;;1693.55;999.90;;;7.60;1.00;;;;;;4996460;28;20059;-71
2022/04/26 05:36:34;;;;;;;1725.30;999.90;;;9.20;1.00;;;;;;4995690;28;20054;-73
2022/04/26 05:39:01;;;;;;;1739.75;999.90;;;9.00;1.00;;;;;;4996614;28;20054;-71
2022/04/26 05:41:27;;;;;;;1716.03;999.90;;;7.60;1.00;;;;;;4996563;28;20063;-72
2022/04/26 05:43:52;;;;;;;1919.43;999.90;;;8.40;1.00;;;;;;4978891;28;20073;-73
2022/04/26 05:46:19;;;;;;;1723.60;999.90;;;;;;;;;;4974950;28;20089;-72
2022/04/26 05:48:44;;;;;;;1787.07;999.90;;;7.80;1.00;;;;;;4964120;28;20121;-71
2022/04/26 05:51:10;;;;;;;1409.30;999.90;;;9.30;1.00;;;;;;4973362;28;20054;-72
2022/04/26 05:53:36;;;;;;;1486.65;999.15;;;7.90;1.00;;;;;;4973266;28;20086;-71
2022/04/26 05:56:04;;;;;;;1674.68;999.90;;;9.20;1.00;;;;;;4974769;28;20423;-71
2022/04/26 05:58:30;;;;;;;1478.50;999.90;;;8.00;1.00;;;;;;4974413;28;20053;-72
2022/04/26 06:00:55;;;;;;;1669.82;999.90;;;8.20;1.00;;;;;;4974336;28;20047;-71
2022/04/26 06:03:21;;;;;;;1648.68;999.90;;;7.90;1.00;;;;;;4945851;28;20532;-72
2022/04/26 06:05:47;;;;;;;1566.78;999.90;;;8.50;1.00;;;;;;4937754;29;20134;-72
2022/04/26 06:08:13;;;;;;;1419.85;999.67;;;8.30;1.00;;;;;;4954042;29;20051;-72
2022/04/26 06:10:39;;;;;;;1625.30;999.90;;;8.80;1.00;;;;;;4954575;29;20055;-71
2022/04/26 06:13:05;;;;;;;1716.20;999.90;;;9.10;1.00;;;;;;4955244;29;20047;-71
2022/04/26 06:15:31;;;;;;;1591.20;999.90;;;8.80;1.00;;;;;;4954789;29;20106;-71
2022/04/26 06:17:57;;;;;;;1568.10;999.90;;;9.40;1.00;;;;;;4954948;29;20051;-71
2022/04/26 06:20:24;;;;;;;1716.50;999.90;;;8.80;1.00;;;;;;4953916;29;20055;-70
2022/04/26 06:22:50;;;;;;;;;;;8.20;1.00;;;;;;4955599;29;20126;-71
2022/04/26 06:25:16;;;;;;;1616.72;999.90;;;9.80;1.00;;;;;;4955204;29;20046;-71
2022/04/26 06:27:42;;;;;;;1340.05;999.90;;;8.40;1.00;;;;;;4955119;29;20043;-72
2022/04/26 06:30:08;;;;;;;1674.38;999.90;;;9.80;1.00;;;;;;4937845;29;20062;-71
2022/04/26 06:32:34;;;;;;;1739.57;999.90;;;8.50;1.00;;;;;;4954340;29;20082;-71
2022/04/26 06:34:59;;;;;;;1711.75;999.90;;;8.50;1.00;;;;;;4953821;29;20094;-71
2022/04/26 06:37:25;;;;;;;1786.65;999.90;;;9.90;1.00;;;;;;4954658;29;20050;-72
2022/04/26 06:39:52;;;;;;;1521.40;964.88;;;8.70;1.00;;;;;;4954689;29;20451;-71
2022/04/26 06:42:17;;;;;;;1659.20;999.90;;;8.80;1.00;;;;;;4954918;29;20357;-71
2022/04/26 06:44:43;;;;;;;1592.45;999.90;;;9.00;1.00;;;;;;4954326;29;20062;-71
2022/04/26 06:47:09;;;;;;;1767.57;999.90;;;9.20;1.00;;;;;;4954599;29;20047;-71
2022/04/26 06:49:35;;;;;;;1359.78;999.90;;;10.70;1.00;;;;;;4970924;28;20050;-71
2022/04/26 06:52:00;;;;;;;1542.35;999.90;;;9.60;1.00;;;;;;4963521;28;20055;-71
2022/04/26 06:54:26;;;;;;;1239.28;979.08;;;9.70;1.00;;;;;;4952888;29;20062;-72
2022/04/26 06:56:52;;;;;;;1175.65;897.67;;;9.70;1.00;;;;;;4954354;29;20082;-71
2022/04/26 06:59:18;;;;;;;1339.25;991.17;;;9.70;1.00;;;;;;4954322;29;20166;-71
2022/04/26 07:01:45;;;;;;;1418.45;999.90;;;9.80;1.00;;;;;;4952670;29;20143;-72
2022/04/26 07:04:11;;;;;;;1141.93;947.67;;;10.10;1.00;;;;;;4952994;29;20138;-71
2022/04/26 07:06:39;;;;;;;1348.13;965.55;;;9.90;1.00;;;;;;4936867;29;20055;-71
2022/04/26 07:09:05;;;;;;;1101.38;937.00;;;9.90;1.00;;;;;;4953869;29;20487;-71
2022/04/26 07:11:31;;;;;;;1286.35;955.90;;;10.00;1.00;;;;;;4958145;28;20054;-71
2022/04/26 07:13:57;;;;;;;1313.32;983.55;;;11.20;1.00;;;;;;4972907;28;20375;-71
2022/04/26 07:16:23;;;;;;;1112.82;956.55;;;10.50;1.00;;;;;;4973122;28;20113;-74
2022/04/26 07:18:49;;;;;;;958.17;857.15;;;10.80;1.00;;;;;;4922968;28;20078;-72
2022/04/26 07:21:15;;;;;;;989.95;884.53;;;11.10;1.00;;;;;;4956198;28;20105;-71
2022/04/26 07:23:41;;;;;;;1042.82;935.42;;;11.00;1.00;;;;;;4972258;28;20391;-71
2022/04/26 07:26:06;;;;;;;1131.63;983.42;;;11.30;1.00;;;;;;4956159;28;20475;-71
2022/04/26 07:28:32;;;;;;;937.85;834.95;;;11.30;1.00;;;;;;4955026;28;20046;-72
2022/04/26 07:30:58;;;;;;;964.05;861.17;;;11.30;1.00;;;;;;4956023;28;20051;-72
2022/04/26 07:36:09;;;;;;;877.22;799.78;;;12.00;1.00;;;;;;4973507;28;20101;-72
2022/04/26 07:38:36;;;;;;;901.30;815.88;;;12.50;1.00;;;;;;4972514;28;20105;-72
2022/04/26 07:41:02;;;;;;;935.50;850.20;;;12.70;1.00;;;;;;4964467;28;20063;-72
2022/04/26 07:43:27;;;;;;;905.05;824.47;;;12.60;99.90;;;;;;4953709;29;20162;-72
2022/04/26 07:45:53;;;;;;;1047.63;952.50;;;13.50;99.90;;;;;;4953758;29;20043;-72
2022/04/26 07:48:21;;;;;;;688.13;627.60;;;14.90;99.90;;;;;;4960634;28;20086;-73
2022/04/26 07:50:48;;;;;;;516.33;476.13;;;16.10;99.90;;;;;;4972114;28;20122;-72
2022/04/26 07:53:14;;;;;;;465.02;429.60;;;17.20;99.90;;;;;;4972924;28;20082;-72
2022/04/26 07:55:40;;;;;;;375.40;346.92;;;18.00;99.90;;;;;;4972680;28;20093;-72
2022/04/26 07:58:05;;;;;;;549.63;512.03;;;19.10;99.90;;;;;;4972447;28;20450;-72
2022/04/26 08:00:31;;;;;;;199.52;186.55;;;20.20;99.90;;;;;;4972525;28;20113;-72
2022/04/26 08:02:57;;;;;;;166.50;156.00;;;21.20;99.90;;;;;;4972566;28;20043;-72
2022/04/26 08:05:23;;;;;;;375.90;349.73;;;21.90;99.90;;;;;;4971682;28;20487;-72
2022/04/26 08:07:49;;;;;;;394.30;363.70;;;21.10;99.90;;;;;;4970950;28;20062;-72
2022/04/26 08:10:15;;;;;;;572.47;530.22;;;19.50;99.90;;;;;;4955086;28;20074;-72
2022/04/26 08:12:42;;;;;;;506.63;472.08;;;18.10;99.90;;;;;;4957654;28;20047;-72
2022/04/26 08:15:10;;;;;;;344.88;320.35;;;16.70;99.90;;;;;;4952895;29;20051;-73
2022/04/26 08:17:36;;;;;;;408.75;379.60;;;15.80;99.90;;;;;;4952748;29;20110;-72
2022/04/26 08:20:03;;;;;;;486.52;452.85;;;14.90;99.90;;;;;;4952176;29;20047;-72
2022/04/26 08:22:29;;;;;;;511.17;473.57;;;14.40;99.90;;;;;;4952933;28;20440;-73
2022/04/26 08:27:39;;;;;;;461.73;432.20;;;14.00;99.90;;;;;;4956238;29;20066;-72
2022/04/26 08:30:06;;;;;;;350.33;325.27;;;14.20;99.90;;;;;;4956905;29;20133;-72
2022/04/26 08:32:45;;;;;;;331.50;310.63;;;14.60;99.90;;;;;;4956401;29;20069;-72
2022/04/26 08:35:14;;;;;;;362.35;338.08;;;15.60;99.90;;;;;;4939163;29;20047;-72
2022/04/26 08:37:40;;;;;;;154.20;145.18;;;16.50;99.90;;;;;;4956253;29;20039;-72
2022/04/26 08:40:07;;;;;;;391.75;364.20;;;18.30;99.90;;;;;;4956495;29;20055;-72
2022/04/26 08:42:41;;;;;;;387.65;360.73;;;19.70;99.90;;;;;;4956024;29;20594;-72
2022/04/26 08:45:09;;;;;;;271.15;253.45;;;20.60;99.90;;;;;;4956772;29;20523;-72
2022/04/26 08:51:07;;;;;;;170.00;159.98;;;22.50;99.90;;;;;;4974794;28;20022;-73
2022/04/26 08:53:08;;;;;;;131.65;123.82;;;22.70;99.90;;;;;;4949206;29;20392;-73
2022/04/26 08:55:41;;;;;;;225.30;211.82;;;21.40;99.90;;;;;;4955803;29;20437;-72
2022/04/26 08:58:10;;;;;;;146.18;137.38;;;20.40;99.90;;;;;;4956358;29;20055;-72
2022/04/26 09:00:37;;;;;;;193.70;182.13;;;19.70;99.90;;;;;;4956017;29;20106;-72
2022/04/26 09:03:11;;;;;;;267.20;249.68;;;18.80;99.90;;;;;;4956169;29;20058;-72
2022/04/26 09:05:37;;;;;;;219.35;206.35;;;18.60;99.90;;;;;;4955716;29;20047;-72
2022/04/26 09:08:22;;;;;;;234.48;220.88;;;18.60;99.90;;;;;;4956225;29;20082;-72
2022/04/26 09:10:49;;;;;;;181.75;170.80;;;19.40;99.90;;;;;;4956124;29;20146;-72
2022/04/26 09:13:17;;;;;;;261.65;245.82;;;20.60;99.90;;;;;;4955836;29;20102;-72
2022/04/26 09:15:47;;;;;;;267.45;251.32;;;21.60;99.90;;;;;;4938844;29;20051;-72
2022/04/26 09:18:30;;;;;;;208.75;196.27;;;22.10;99.90;;;;;;4955707;29;20483;-72
2022/04/26 09:21:08;;;;;;;215.82;203.20;;;21.90;99.90;;;;;;4956424;29;20051;-73
2022/04/26 09:23:33;;;;;;;120.97;113.70;;;21.30;99.90;;;;;;4955855;29;20109;-72
2022/04/26 09:26:08;;;;;;;322.63;304.00;;;21.30;99.90;;;;;;4955631;29;20059;-72
2022/04/26 09:28:37;;;;;;;184.07;173.27;;;22.30;99.90;;;;;;4955572;29;20106;-72
2022/04/26 09:31:23;;;;;;;301.25;282.70;;;23.60;99.90;;;;;;4956213;29;20444;-72
2022/04/26 09:33:57;;;;;;;281.88;264.63;;;24.60;99.90;;;;;;4954012;28;20479;-72
2022/04/26 09:36:24;;;;;;;246.95;232.20;;;24.30;99.90;;;;;;4955563;29;20051;-72
2022/04/26 09:39:00;;;;;;;273.67;254.40;;;23.10;99.90;;;;;;4954849;29;20047;-72
2022/04/26 09:41:27;;;;;;;177.07;166.27;;;22.20;99.90;;;;;;4966528;28;20479;-72
2022/04/26 09:44:07;;;;;;;252.30;238.27;;;21.80;99.90;;;;;;4957495;28;20488;-72
2022/04/26 09:46:47;;;;;;;241.15;226.60;;;22.60;99.90;;;;;;4975122;28;20090;-76
2022/04/26 09:49:15;;;;;;;194.88;183.32;;;23.80;99.90;;;;;;4973887;28;20090;-72
2022/04/26 09:51:42;;;;;;;260.40;244.45;;;24.70;99.90;;;;;;4974874;28;20090;-73
2022/04/26 09:54:08;;;;;;;184.77;173.77;;;25.40;99.90;;;;;;4974939;28;20066;-72
2022/04/26 09:56:34;;;;;;;176.95;166.35;;;26.00;99.90;;;;;;4974803;28;20046;-78
2022/04/26 09:59:02;;;;;;;220.75;206.70;;;26.60;99.90;;;;;;4974687;28;20462;-72
2022/04/26 10:01:39;;;;;;;269.55;253.43;;;26.60;99.90;;;;;;4973753;28;20051;-71
2022/04/26 10:04:08;;;;;;;122.68;114.72;;;26.50;99.90;;;;;;4974304;28;20039;-72
2022/04/26 10:06:36;;;;;;;186.60;175.13;;;26.50;99.90;;;;;;4975192;28;20051;-73
2022/04/26 10:09:02;;;;;;;;;;;26.60;99.90;;;;;;4974956;28;20048;-73
2022/04/26 10:11:29;;;;;;;178.48;168.13;;;27.20;99.90;;;;;;4970527;28;19930;-72
2022/04/26 10:13:55;;;;;;;142.45;134.05;;;27.90;99.90;;;;;;4954995;29;20051;-73
2022/04/26 10:16:22;;;;;;;111.70;105.07;;;28.40;99.90;;;;;;4955542;29;20139;-72
2022/04/26 10:18:49;;;;;;;108.90;102.55;;;27.60;99.90;;;;;;4954111;29;20055;-72
2022/04/26 10:21:23;;;;;;;145.77;137.75;;;27.30;99.90;;;;;;4955475;29;20424;-72
2022/04/26 10:23:56;;;;;;;194.88;181.50;;;26.10;99.90;;;;;;4954838;29;20090;-72
2022/04/26 10:26:26;;;;;;;76.53;72.25;;;25.70;99.90;;;;;;4953725;29;20047;-73
2022/04/26 10:28:59;;;;;;;112.00;105.20;;;26.30;99.90;;;;;;4954572;29;20040;-73
2022/04/26 10:31:37;;;;;;;168.23;157.35;;;26.60;99.90;;;;;;4955059;29;20051;-72
2022/04/26 10:34:27;;;;;;;110.63;104.05;;;27.10;99.90;;;;;;4954003;29;20039;-72
2022/04/26 10:36:53;;;;;;;107.57;101.10;;;26.80;99.90;;;;;;4954191;29;20488;-72
2022/04/26 10:39:30;;;;;;;94.13;88.68;;;25.90;99.90;;;;;;4954602;29;20051;-72
2022/04/26 10:41:56;;;;;;;80.07;75.15;;;24.90;99.90;;;;;;4954548;29;20055;-72
2022/04/26 10:44:28;;;;;;;87.80;82.72;;;23.80;99.90;;;;;;4937444;29;20055;-72
2022/04/26 10:46:58;;;;;;;83.57;78.88;;;23.50;99.90;;;;;;4954179;28;20054;-72
2022/04/26 10:49:36;;;;;;;110.97;104.47;;;24.10;99.90;;;;;;4969524;28;20059;-72
2022/04/26 10:52:22;;;;;;;95.60;90.00;;;24.80;99.90;;;;;;4962648;28;20106;-72
2022/04/26 10:55:03;;;;;;;119.30;111.60;;;25.20;99.90;;;;;;4954010;29;20058;-72
2022/04/26 10:57:35;;;;;;;99.38;93.82;;;25.50;99.90;;;;;;4954345;29;20126;-72
2022/04/26 11:00:07;;;;;;;114.03;107.70;;;26.30;99.90;;;;;;4953965;29;20114;-72
2022/04/26 11:02:36;;;;;;;235.82;219.35;;;26.80;99.90;;;;;;4921331;29;20130;-72
2022/04/26 11:05:23;;;;;;;79.72;75.07;;;26.50;99.90;;;;;;4952861;29;20043;-72
2022/04/26 11:07:49;;;;;;;93.57;87.60;;;26.20;99.90;;;;;;4953589;29;20043;-72
2022/04/26 11:10:19;;;;;;;288.25;269.10;;;26.60;99.90;;;;;;4953727;29;20047;-72
2022/04/26 11:12:45;;;;;;;345.65;322.10;;;26.40;99.90;;;;;;4953481;29;20050;-72
2022/04/26 11:15:19;;;;;;;224.02;207.98;;;25.90;99.90;;;;;;4954111;29;20487;-72
2022/04/26 11:17:45;;;;;;;97.10;91.50;;;25.60;99.90;;;;;;4953459;29;20123;-72
2022/04/26 11:20:14;;;;;;;132.40;124.93;;;25.40;99.90;;;;;;4935918;29;20074;-72
2022/04/26 11:27:59;;;;;;;85.55;80.30;;;25.00;99.90;;;;;;4936446;29;20111;-73
2022/04/26 11:28:27;;;;;;;128.93;121.43;;;24.40;99.90;;;;;;4953705;29;20055;-73
2022/04/26 11:30:57;;;;;;;158.60;149.65;;;25.10;99.90;;;;;;4952095;29;20055;-73
2022/04/26 11:33:24;;;;;;;156.07;146.80;;;25.90;99.90;;;;;;4953348;29;20134;-72
2022/04/26 11:35:58;;;;;;;51.88;48.67;;;26.50;99.90;;;;;;4953002;29;20053;-73
2022/04/26 11:38:25;;;;;;;262.27;244.10;;;26.90;99.90;;;;;;4953397;29;20058;-73
2022/04/26 11:40:52;;;;;;;41.55;38.33;;;26.60;99.90;;;;;;4952932;28;20113;-72
2022/04/26 11:43:23;;;;;;;341.17;317.80;;;26.30;99.90;;;;;;4953304;29;20476;-72
2022/04/26 11:45:50;;;;;;;171.43;160.88;;;27.00;99.90;;;;;;4951633;29;20058;-73
2022/04/26 11:48:18;;;;;;;86.53;81.30;;;27.60;99.90;;;;;;4960065;28;20058;-72
2022/04/26 11:50:47;;;;;;;89.70;84.13;;;28.40;99.90;;;;;;4972261;28;20097;-72
2022/04/26 11:53:15;;;;;;;84.82;79.63;;;28.10;99.90;;;;;;4972330;28;20349;-72
2022/04/26 11:55:41;;;;;;;133.93;125.85;;;27.30;99.90;;;;;;4972577;28;20542;-72
2022/04/26 11:58:10;;;;;;;104.37;98.07;;;27.00;99.90;;;;;;4971000;28;20050;-72
2022/04/26 12:00:49;;;;;;;100.57;94.53;;;26.70;99.90;;;;;;4972349;28;20348;-72
2022/04/26 12:03:16;;;;;;;265.00;247.05;;;26.30;99.90;;;;;;4971815;28;20047;-72
2022/04/26 12:05:43;;;;;;;106.60;100.20;;;26.10;99.90;;;;;;4972026;28;20071;-72
2022/04/26 12:08:11;;;;;;;163.15;152.98;;;25.60;99.90;;;;;;4970527;28;20395;-72
2022/04/26 12:10:37;;;;;;;153.60;144.00;;;25.50;99.90;;;;;;4971913;28;20077;-72
2022/04/26 12:13:05;;;;;;;202.57;189.80;;;24.30;99.90;;;;;;4923950;29;20134;-72
2022/04/26 12:15:38;;;;;;;231.43;215.27;;;23.20;99.90;;;;;;4952564;29;20047;-72
2022/04/26 12:18:08;;;;;;;308.58;286.38;;;22.20;99.90;;;;;;4952672;29;20546;-72
2022/04/26 12:20:55;;;;;;;229.80;214.27;;;21.80;99.90;;;;;;4952998;29;20047;-72
2022/04/26 12:23:22;;;;;;;273.23;253.45;;;21.50;99.90;;;;;;4952907;29;20145;-72
2022/04/26 12:25:55;;;;;;;364.20;339.90;;;21.00;99.90;;;;;;4953439;29;20051;-71
2022/04/26 12:28:21;;;;;;;298.42;276.00;;;20.20;99.90;;;;;;4952824;29;20044;-72
2022/04/26 12:30:46;;;;;;;217.15;203.80;;;19.60;99.90;;;;;;4953133;29;20059;-72
2022/04/26 12:33:27;;;;;;;579.28;540.25;;;18.90;99.90;;;;;;4952429;29;20051;-72
2022/04/26 12:36:05;;;;;;;331.92;305.38;;;18.60;99.90;;;;;;4952656;29;20043;-72
2022/04/26 12:38:45;;;;;;;504.50;470.33;;;18.20;99.90;;;;;;4953027;29;20051;-72
2022/04/26 12:41:11;;;;;;;373.88;348.38;;;17.80;99.90;;;;;;4935690;29;20050;-72
2022/04/26 12:43:37;;;;;;;353.48;330.77;;;17.50;99.90;;;;;;4952912;29;20047;-73
2022/04/26 12:46:06;;;;;;;428.75;397.90;;;17.30;99.90;;;;;;4935811;29;20055;-72
2022/04/26 12:51:24;;;;;;;346.10;324.33;;;17.40;99.90;;;;;;4972329;28;20065;-71
2022/04/26 12:53:51;;;;;;;208.30;195.93;;;17.40;99.90;;;;;;4972243;28;20047;-71
2022/04/26 12:56:19;;;;;;;243.18;227.35;;;17.50;99.90;;;;;;4971623;28;20054;-71
2022/04/26 12:58:47;;;;;;;171.82;161.30;;;17.50;99.90;;;;;;4970503;28;20043;-71
2022/04/26 13:01:15;;;;;;;275.42;256.27;;;17.40;99.90;;;;;;4963564;28;20047;-71
2022/04/26 13:03:42;;;;;;;210.32;196.88;;;17.30;99.90;;;;;;4935075;29;20051;-71
2022/04/26 13:06:12;;;;;;;495.77;453.77;;;17.30;99.90;;;;;;4952580;29;20488;-71
2022/04/26 13:08:39;;;;;;;298.83;277.65;;;17.10;99.90;;;;;;4951717;28;20054;-70
2022/04/26 13:11:05;;;;;;;590.53;544.65;;;16.90;99.90;;;;;;4955342;29;20059;-71
2022/04/26 13:13:33;;;;;;;129.30;121.65;;;16.80;99.90;;;;;;4956345;29;20399;-70
2022/04/26 13:15:59;;;;;;;;;;;16.60;99.90;;;;;;4939389;29;20146;-70
2022/04/26 13:18:25;;;;;;;583.35;541.42;;;16.40;99.90;;;;;;4955562;29;20361;-72
2022/04/26 13:20:54;;;;;;;553.88;506.25;;;16.20;99.90;;;;;;4956270;29;20083;-70
2022/04/26 13:23:20;;;;;;;484.38;447.92;;;16.20;99.90;;;;;;4956128;29;20043;-71
2022/04/26 13:25:46;;;;;;;204.45;189.73;;;16.10;99.90;;;;;;4955935;29;20130;-70
2022/04/26 13:28:12;;;;;;;416.83;382.95;;;16.00;99.90;;;;;;4955620;29;20559;-71
2022/04/26 13:30:39;;;;;;;537.28;495.05;;;15.90;99.90;;;;;;4956049;29;20047;-70
2022/04/26 13:33:05;;;;;;;534.77;491.60;;;15.80;99.90;;;;;;4955751;29;20047;-70
2022/04/26 13:35:30;;;;;;;152.07;141.65;;;15.80;99.90;;;;;;4955049;29;20399;-70
2022/04/26 13:37:58;;;;;;;106.38;100.13;;;15.80;99.90;;;;;;4955188;29;20051;-71
2022/04/26 13:40:25;;;;;;;589.13;544.83;;;15.80;99.90;;;;;;4955476;28;20051;-70
2022/04/26 13:42:51;;;;;;;180.68;168.35;;;15.70;99.90;;;;;;4955944;29;20059;-70
2022/04/26 13:45:18;;;;;;;561.28;517.92;;;15.60;99.90;;;;;;4955006;29;20134;-70
2022/04/26 13:47:45;;;;;;;499.42;462.90;;;15.50;99.90;;;;;;4958524;28;20462;-70
2022/04/26 13:50:12;;;;;;;523.95;482.52;;;15.50;99.90;;;;;;4973703;28;20050;-70
2022/04/26 13:52:40;;;;;;;219.53;202.20;;;15.60;99.90;;;;;;4975129;28;20053;-70
2022/04/26 13:55:07;;;;;;;462.65;423.58;;;15.80;99.90;;;;;;4974338;28;20055;-70
2022/04/26 13:57:33;;;;;;;218.82;202.30;;;15.80;99.90;;;;;;4945600;29;20073;-71
2022/04/26 13:59:59;;;;;;;385.38;355.30;;;15.80;99.90;;;;;;4953940;29;20051;-71
2022/04/26 14:02:25;;;;;;;798.05;729.97;;;15.80;99.90;;;;;;4955525;29;20043;-70
2022/04/26 14:04:51;;;;;;;571.30;526.63;;;15.80;99.90;;;;;;4954453;29;20163;-70
2022/04/26 14:07:17;;;;;;;461.95;425.35;;;15.90;99.90;;;;;;4937935;29;20102;-72
2022/04/26 14:09:43;;;;;;;493.70;453.98;;;16.10;99.90;;;;;;4938281;29;20059;-71
2022/04/26 14:12:11;;;;;;;350.73;321.60;;;16.30;99.90;;;;;;4955025;29;20043;-72
2022/04/26 14:22:52;;;;;;;742.67;684.30;;;16.20;99.90;;;;;;4955350;29;20061;-71
2022/04/26 14:25:17;;;;;;;543.03;500.00;;;16.20;99.90;;;;;;4954614;29;20050;-71
2022/04/26 14:27:45;;;;;;;650.53;595.95;;;16.30;99.90;;;;;;4955260;29;20076;-70
2022/04/26 14:30:12;;;;;;;423.30;389.27;;;16.40;99.90;;;;;;4954207;28;20487;-70
2022/04/26 14:32:38;;;;;;;527.00;481.50;;;16.50;99.90;;;;;;4937682;29;20051;-71
2022/04/26 14:35:04;;;;;;;596.38;549.63;;;16.50;99.90;;;;;;4953681;29;20102;-70
2022/04/26 14:37:33;;;;;;;252.38;231.30;;;16.50;99.90;;;;;;4955052;29;20057;-70
2022/04/26 14:39:59;;;;;;;706.63;645.70;;;16.40;99.90;;;;;;4937847;29;20093;-69
2022/04/26 14:42:24;;;;;;;171.45;157.45;;;16.50;99.90;;;;;;4954425;29;20140;-70
2022/04/26 14:44:50;;;;;;;381.98;349.23;;;16.50;99.90;;;;;;4953544;29;20051;-71
2022/04/26 14:47:15;;;;;;;258.40;236.07;;;16.40;99.90;;;;;;4954481;29;20062;-70
2022/04/26 14:49:41;;;;;;;441.55;405.90;;;16.30;99.90;;;;;;4972507;28;20051;-70
2022/04/26 14:52:08;;;;;;;665.42;612.72;;;16.10;99.90;;;;;;4976378;28;20038;-70
2022/04/26 14:54:34;;;;;;;713.15;657.28;;;16.00;99.90;;;;;;4978698;28;20055;-70
2022/04/26 14:57:00;;;;;;;488.15;449.00;;;16.00;99.90;;;;;;4958158;28;20108;-71
2022/04/26 14:59:26;;;;;;;635.25;585.60;;;16.00;99.90;;;;;;4974708;28;20091;-71
2022/04/26 15:01:53;;;;;;;732.08;675.58;;;15.80;99.90;;;;;;4974881;28;20078;-70
2022/04/26 15:04:22;;;;;;;660.10;611.25;;;15.60;99.90;;;;;;4973206;28;20133;-70
2022/04/26 15:06:49;;;;;;;653.75;599.97;;;15.50;99.90;;;;;;4974180;28;20050;-71
2022/04/26 15:17:34;;;;;;;684.25;628.90;;;15.10;99.90;;;;;;4962947;28;20557;-70
2022/04/26 15:20:02;;;;;;;605.50;559.33;;;15.10;99.90;;;;;;4959883;28;20043;-70
2022/04/26 15:22:28;;;;;;;567.22;525.08;;;15.00;99.90;;;;;;4958270;28;20050;-71
2022/04/26 15:24:55;;;;;;;678.70;621.08;;;14.60;99.90;;;;;;4973129;28;20047;-70
2022/04/26 15:27:21;;;;;;;857.35;777.97;;;14.40;99.90;;;;;;4972917;28;20081;-70
2022/04/26 15:29:47;;;;;;;656.90;600.15;;;14.20;99.90;;;;;;4973173;28;20502;-70
2022/04/26 15:32:13;;;;;;;693.35;638.50;;;13.90;99.90;;;;;;4972225;28;20093;-71
2022/04/26 15:34:39;;;;;;;787.15;710.88;;;13.90;99.90;;;;;;4972082;28;20495;-70
2022/04/26 15:37:06;;;;;;;525.25;483.73;;;13.90;99.90;;;;;;4972726;28;20081;-70
2022/04/26 15:39:32;;;;;;;640.37;587.83;;;14.20;99.90;;;;;;4973015;28;20379;-71
2022/04/26 15:41:59;;;;;;;684.33;629.38;;;14.60;99.90;;;;;;4956188;28;20058;-72
2022/04/26 15:44:25;;;;;;;630.65;582.97;;;15.60;99.90;;;;;;4972927;28;20054;-70
2022/04/26 15:46:54;;;;;;;660.00;602.35;;;15.20;99.90;;;;;;4973325;28;20058;-70
2022/04/26 15:49:20;;;;;;;740.28;682.42;;;15.30;99.90;;;;;;4971325;28;20054;-70
2022/04/26 15:51:47;;;;;;;699.05;639.10;;;15.30;99.90;;;;;;4972772;28;20039;-70
2022/04/26 15:54:16;;;;;;;694.60;625.80;;;15.40;99.90;;;;;;4971498;28;20502;-71
2022/04/26 15:56:43;;;;;;;853.50;784.80;;;15.50;99.90;;;;;;4972808;28;20092;-71
2022/04/26 15:59:10;;;;;;;771.05;701.60;;;15.60;99.90;;;;;;4972380;28;20055;-75
2022/04/26 16:01:37;;;;;;;867.40;782.47;;;15.70;99.90;;;;;;4973285;28;20109;-70
2022/04/26 16:04:04;;;;;;;507.10;465.23;;;15.80;99.90;;;;;;4971935;28;20094;-71
2022/04/26 16:06:30;;;;;;;723.10;657.95;;;15.60;99.90;;;;;;4972596;28;20054;-71
2022/04/26 16:20:28;;;;;;;590.35;539.83;;;15.50;99.90;;;;;;4972456;28;20042;-70
2022/04/26 16:22:38;;;;;;;700.20;626.55;;;15.10;99.90;;;;;;4972842;28;20063;-70
2022/04/26 16:25:06;;;;;;;395.08;361.38;;;15.00;99.90;;;;;;4955366;28;20047;-71
2022/04/26 16:27:32;;;;;;;870.67;794.13;;;15.00;99.90;;;;;;4972342;28;20054;-70
2022/04/26 16:30:00;;;;;;;759.28;688.63;;;15.00;99.90;;;;;;4971217;28;20134;-70
2022/04/26 16:32:27;;;;;;;;;;;14.70;99.90;;;;;;4972740;28;20065;-70
2022/04/26 16:34:53;;;;;;;397.35;365.23;;;14.70;99.90;;;;;;4971571;28;19929;-70
2022/04/26 16:37:19;;;;;;;851.55;781.50;;;14.60;99.90;;;;;;4970767;28;20043;-70